Waterford, Mississippi
Current Conditions -  °F | °C
As of 3:55 PM on Sunday 25 Jan 2015 (Local Time) from KUOX Reporting Station
Broken Clouds Broken Clouds  
Wind Chill: 54°   Ceiling: 4600
Heat Index: 54°   Visibility: 10mi
Dew Point: 39°   Wind: 8mph
Humidity: 58%   Direction: 240°WSW
Pressure: 29.76"   Gusts: NA
Location:  34.65°N, 89.46°W
Report Text: KUOX 252155Z AUTO 24007KT 020V030 10SM BKN046 BKN050 12/04 A2976 RMK AO2 PWINO PNO
Loading
Personal Weather Stations






























Interactive Weather Map New forecast layout! Learn more

10-Day Weather Forecast

Advertisements
Track Severe Weather on mobile